This is the latest recevied weather packets stored in our database for station/object N8XHB. If no packets are shown the sender has not sent any weather packets the latest 1 day(s).
| Time | Temp. | Humidity | Pressure | Rain* | Wind** | Luminosity | Snow |
|---|---|---|---|---|---|---|---|
| 1778084072 | 12.22° C | 35% | 1013.6 hPa | 0 mm | - | 830 W/m² | - |
| 1778083769 | 12.22° C | 36% | 1013.7 hPa | 0 mm | - | 936 W/m² | - |
| 1778082861 | 11.11° C | 36% | 1013.8 hPa | 0 mm | - | 675 W/m² | - |
| 1778081440 | 12.22° C | 36% | 1013.6 hPa | 0 mm | - | 664 W/m² | - |
| 1778081137 | 12.22° C | 36% | 1013.7 hPa | 0 mm | - | 458 W/m² | - |
| 1778080835 | 12.78° C | 35% | 1013.8 hPa | 0 mm | - | 524 W/m² | - |
| 1778079926 | 11.11° C | 37% | 1013.8 hPa | 0 mm | - | 617 W/m² | - |
| 1778079623 | 11.67° C | 35% | 1013.6 hPa | 0 mm | - | 656 W/m² | - |
| 1778076598 | 11.11° C | 39% | 1013 hPa | 0 mm | - | 545 W/m² | - |
| 1778075689 | 11.11° C | 43% | 1013.2 hPa | 0 mm | - | 367 W/m² | - |
| 1778074475 | 10.56° C | 43% | 1013 hPa | 0 mm | - | 421 W/m² | - |
| 1778073869 | 10.56° C | 45% | 1012.9 hPa | 0 mm | - | 367 W/m² | - |
| 1778072960 | 9.44° C | 49% | 1012.8 hPa | 0 mm | - | 365 W/m² | - |
| 1778072656 | 9.44° C | 52% | 1012.8 hPa | 0 mm | - | 342 W/m² | - |
| 1778071145 | 8.33° C | 55% | 1012.9 hPa | 0 mm | - | 259 W/m² | - |
| 1778070843 | 7.78° C | 56% | 1012.9 hPa | 0 mm | - | 243 W/m² | - |
| 1778070540 | 7.78° C | 56% | 1012.9 hPa | 0 mm | - | 229 W/m² | - |
| 1778069935 | 7.78° C | 57% | 1012.8 hPa | 0 mm | - | 199 W/m² | - |
| 1778067515 | 5° C | 65% | 1012 hPa | 0 mm | - | 100 W/m² | - |
| 1778066909 | 3.89° C | 68% | 1011.8 hPa | 0 mm | - | 63 W/m² | - |
| 1778065699 | 3.33° C | 71% | 1011.3 hPa | 0 mm | - | 29 W/m² | - |
| 1778064789 | 2.78° C | 73% | 1011.1 hPa | 0 mm | - | 24 W/m² | - |
| 1778064487 | 2.78° C | 74% | 1011.3 hPa | 0 mm | - | 16 W/m² | - |
| 1778063276 | 2.22° C | 76% | 1011.3 hPa | 0 mm | - | 3 W/m² | - |
| 1778062974 | 2.22° C | 75% | 1011.5 hPa | 0 mm | - | 1 W/m² | - |
* Rain latest hour (hover to see other rain measurements)
** Current wind speed in m/s (hover to see current wind gust speed)